Grey Lady — WDC9414 — position and weather

sailwx.info

Track history (hours):
 
Tides and Currents Weather Stations Pressure Air Temp Water Temp Dewpoint Dewpoint Depression Visibility Wind Speed Wind Dir Waves Ship Positions

Grey Lady

Owner: HYANNIS HARBOR TOURS INC, HYANNIS, MA. More information available from US FCC via Universal Licensing System and Coast Guard Vessel Documentation Center.

Last reported at 2018-Jan-01 17:22 UTC. Time now 2018-Feb-24 14:33 UTC.
Position N 41°39' W 070°17'.
Warning: this ship's position is 53 days out of date.

Length 44 m; draft 2 m.

Type: High speed craft. MMSI: 367101920.

Date/timePositionNaut miles runAvg speedWind from/ knotsBaromVisibWave heightAir tempDewpointWater temp
2018-Jan-01 17:22N 41°39' W 070°17'0 0.0
2018-Jan-01 15:01N 41°39' W 070°17'0 0.0
2018-Jan-01 14:30N 41°39' W 070°17'0 0.0
2018-Jan-01 14:00N 41°39' W 070°17'0 0.0
2018-Jan-01 13:30N 41°39' W 070°17'0 0.0
2018-Jan-01 13:00N 41°39' W 070°17'0 0.0
2018-Jan-01 02:20N 41°39' W 070°17'3 1.3
2018-Jan-01 00:15N 41°36' W 070°17'0 0.0
2017-Dec-31 20:25N 41°37' W 070°17'2 5.9
2017-Dec-31 20:00N 41°39' W 070°17'0 0.0
2017-Dec-31 19:30N 41°39' W 070°17'2 0.9
2017-Dec-31 17:16N 41°37' W 070°18'2 7.7
2017-Dec-31 17:00N 41°39' W 070°17'1 1.1
2017-Dec-31 16:27N 41°39' W 070°16'2 1.1
2017-Dec-31 14:24N 41°36' W 070°17'3 6.2
2017-Dec-31 14:00N 41°39' W 070°17'2 0.8
2017-Dec-31 11:32N 41°37' W 070°17'129.0
2017-Dec-31 11:30N 41°38' W 070°17'  
Track history (hours):
 
Tides and Currents Weather Stations Pressure Air Temp Water Temp Dewpoint Dewpoint Depression Visibility Wind Speed Wind Dir Waves Ship Positions

Grey Lady

Owner: HYANNIS HARBOR TOURS INC, HYANNIS, MA. More information available from US FCC via Universal Licensing System and Coast Guard Vessel Documentation Center.

Last reported at 2018-Jan-01 17:22 UTC. Time now 2018-Feb-24 14:33 UTC.
Position N 41°39' W 070°17'.
Warning: this ship's position is 53 days out of date.

Length 44 m; draft 2 m.

Type: High speed craft. MMSI: 367101920.

Date/timePositionNaut miles runAvg speedWind from/ knotsBaromVisibWave heightAir tempDewpointWater temp
2018-Jan-01 17:22N 41°39' W 070°17'0 0.0
2018-Jan-01 15:01N 41°39' W 070°17'0 0.0
2018-Jan-01 14:30N 41°39' W 070°17'0 0.0
2018-Jan-01 14:00N 41°39' W 070°17'0 0.0
2018-Jan-01 13:30N 41°39' W 070°17'0 0.0
2018-Jan-01 13:00N 41°39' W 070°17'0 0.0
2018-Jan-01 02:20N 41°39' W 070°17'3 1.3
2018-Jan-01 00:15N 41°36' W 070°17'0 0.0
2017-Dec-31 20:25N 41°37' W 070°17'2 5.9
2017-Dec-31 20:00N 41°39' W 070°17'0 0.0
2017-Dec-31 19:30N 41°39' W 070°17'2 0.9
2017-Dec-31 17:16N 41°37' W 070°18'2 7.7
2017-Dec-31 17:00N 41°39' W 070°17'1 1.1
2017-Dec-31 16:27N 41°39' W 070°16'2 1.1
2017-Dec-31 14:24N 41°36' W 070°17'3 6.2
2017-Dec-31 14:00N 41°39' W 070°17'2 0.8
2017-Dec-31 11:32N 41°37' W 070°17'129.0
2017-Dec-31 11:30N 41°38' W 070°17'  

Dump ship's entire track history